sensor_id;sensor_type;location;lat;lon;timestamp;temperature;humidity
17632;DHT22;8934;51.194;17.150;2023-08-01T00:01:23;18.80;99.90
17632;DHT22;8934;51.194;17.150;2023-08-01T00:04:11;18.80;99.90
17632;DHT22;8934;51.194;17.150;2023-08-01T00:06:59;18.80;99.90
17632;DHT22;8934;51.194;17.150;2023-08-01T00:09:46;18.80;99.90
17632;DHT22;8934;51.194;17.150;2023-08-01T00:12:36;18.70;99.90
17632;DHT22;8934;51.194;17.150;2023-08-01T00:15:23;18.70;99.90
17632;DHT22;8934;51.194;17.150;2023-08-01T00:18:11;18.70;99.90
17632;DHT22;8934;51.194;17.150;2023-08-01T00:20:59;18.70;99.90
17632;DHT22;8934;51.194;17.150;2023-08-01T00:23:46;18.70;99.90
17632;DHT22;8934;51.194;17.150;2023-08-01T00:26:34;18.70;99.90
17632;DHT22;8934;51.194;17.150;2023-08-01T00:29:24;18.70;99.90
17632;DHT22;8934;51.194;17.150;2023-08-01T00:32:12;18.60;99.90
17632;DHT22;8934;51.194;17.150;2023-08-01T00:35:00;18.60;99.90
17632;DHT22;8934;51.194;17.150;2023-08-01T00:37:48;18.60;99.90
17632;DHT22;8934;51.194;17.150;2023-08-01T00:40:36;18.60;99.90
17632;DHT22;8934;51.194;17.150;2023-08-01T00:43:24;18.50;99.90
17632;DHT22;8934;51.194;17.150;2023-08-01T00:46:13;18.40;99.90
17632;DHT22;8934;51.194;17.150;2023-08-01T00:49:02;18.40;99.90
17632;DHT22;8934;51.194;17.150;2023-08-01T00:51:50;18.30;99.90
17632;DHT22;8934;51.194;17.150;2023-08-01T00:54:38;18.30;99.90
17632;DHT22;8934;51.194;17.150;2023-08-01T00:57:26;18.20;99.90
17632;DHT22;8934;51.194;17.150;2023-08-01T01:00:14;18.20;99.90
17632;DHT22;8934;51.194;17.150;2023-08-01T01:03:05;18.10;99.90
17632;DHT22;8934;51.194;17.150;2023-08-01T01:05:57;18.10;99.90
17632;DHT22;8934;51.194;17.150;2023-08-01T01:08:48;18.00;99.90
17632;DHT22;8934;51.194;17.150;2023-08-01T01:11:36;18.00;99.90
17632;DHT22;8934;51.194;17.150;2023-08-01T01:14:23;18.00;99.90
17632;DHT22;8934;51.194;17.150;2023-08-01T01:17:12;17.90;99.90
17632;DHT22;8934;51.194;17.150;2023-08-01T01:20:02;17.90;99.90
17632;DHT22;8934;51.194;17.150;2023-08-01T01:22:52;17.90;99.90
17632;DHT22;8934;51.194;17.150;2023-08-01T01:25:41;17.90;99.90
17632;DHT22;8934;51.194;17.150;2023-08-01T01:28:29;17.90;99.90
17632;DHT22;8934;51.194;17.150;2023-08-01T01:31:19;17.80;99.90
17632;DHT22;8934;51.194;17.150;2023-08-01T01:34:07;17.80;99.90
17632;DHT22;8934;51.194;17.150;2023-08-01T01:36:55;17.80;99.90
17632;DHT22;8934;51.194;17.150;2023-08-01T01:39:45;17.70;99.90
17632;DHT22;8934;51.194;17.150;2023-08-01T01:42:32;17.60;99.90
17632;DHT22;8934;51.194;17.150;2023-08-01T01:45:20;17.50;99.90
17632;DHT22;8934;51.194;17.150;2023-08-01T01:48:08;17.40;99.90
17632;DHT22;8934;51.194;17.150;2023-08-01T01:50:55;17.40;99.90
17632;DHT22;8934;51.194;17.150;2023-08-01T01:53:43;17.30;99.90
17632;DHT22;8934;51.194;17.150;2023-08-01T01:56:32;17.20;99.90
17632;DHT22;8934;51.194;17.150;2023-08-01T01:59:22;17.20;99.90
17632;DHT22;8934;51.194;17.150;2023-08-01T02:02:10;17.10;99.90
17632;DHT22;8934;51.194;17.150;2023-08-01T02:04:57;17.10;99.90
17632;DHT22;8934;51.194;17.150;2023-08-01T02:07:46;17.10;99.90
17632;DHT22;8934;51.194;17.150;2023-08-01T02:10:34;17.10;99.90
17632;DHT22;8934;51.194;17.150;2023-08-01T02:13:23;17.10;99.90
17632;DHT22;8934;51.194;17.150;2023-08-01T02:16:10;17.10;99.90
17632;DHT22;8934;51.194;17.150;2023-08-01T02:18:58;17.10;99.90
17632;DHT22;8934;51.194;17.150;2023-08-01T02:21:46;17.20;99.90
17632;DHT22;8934;51.194;17.150;2023-08-01T02:24:33;17.20;99.90
17632;DHT22;8934;51.194;17.150;2023-08-01T02:27:21;17.20;99.90
17632;DHT22;8934;51.194;17.150;2023-08-01T02:30:11;17.30;99.90
17632;DHT22;8934;51.194;17.150;2023-08-01T02:32:59;17.40;99.90
17632;DHT22;8934;51.194;17.150;2023-08-01T02:35:47;17.40;99.90
17632;DHT22;8934;51.194;17.150;2023-08-01T02:38:35;17.50;99.90
17632;DHT22;8934;51.194;17.150;2023-08-01T02:41:23;17.50;99.90
17632;DHT22;8934;51.194;17.150;2023-08-01T02:44:10;17.50;99.90
17632;DHT22;8934;51.194;17.150;2023-08-01T02:47:00;17.50;99.90
17632;DHT22;8934;51.194;17.150;2023-08-01T02:49:47;17.50;99.90
17632;DHT22;8934;51.194;17.150;2023-08-01T02:52:35;17.50;99.90
17632;DHT22;8934;51.194;17.150;2023-08-01T02:55:23;17.50;99.90
17632;DHT22;8934;51.194;17.150;2023-08-01T02:58:10;17.50;99.90
17632;DHT22;8934;51.194;17.150;2023-08-01T03:00:58;17.50;99.90
17632;DHT22;8934;51.194;17.150;2023-08-01T03:03:47;17.50;99.90
17632;DHT22;8934;51.194;17.150;2023-08-01T03:06:35;17.50;99.90
17632;DHT22;8934;51.194;17.150;2023-08-01T03:09:23;17.50;99.90
17632;DHT22;8934;51.194;17.150;2023-08-01T03:12:11;17.50;99.90
17632;DHT22;8934;51.194;17.150;2023-08-01T03:14:58;17.50;99.90
17632;DHT22;8934;51.194;17.150;2023-08-01T03:17:46;17.40;99.90
17632;DHT22;8934;51.194;17.150;2023-08-01T03:20:35;17.40;99.90
17632;DHT22;8934;51.194;17.150;2023-08-01T03:23:23;17.40;99.90
17632;DHT22;8934;51.194;17.150;2023-08-01T03:26:11;17.30;99.90
17632;DHT22;8934;51.194;17.150;2023-08-01T03:28:58;17.30;99.90
17632;DHT22;8934;51.194;17.150;2023-08-01T03:31:47;17.20;99.90
17632;DHT22;8934;51.194;17.150;2023-08-01T03:34:35;17.20;99.90
17632;DHT22;8934;51.194;17.150;2023-08-01T03:37:24;17.20;99.90
17632;DHT22;8934;51.194;17.150;2023-08-01T03:40:12;17.20;99.90
17632;DHT22;8934;51.194;17.150;2023-08-01T03:42:59;17.10;99.90
17632;DHT22;8934;51.194;17.150;2023-08-01T03:45:47;17.10;99.90
17632;DHT22;8934;51.194;17.150;2023-08-01T03:48:35;17.10;99.90
17632;DHT22;8934;51.194;17.150;2023-08-01T03:51:22;17.10;99.90
17632;DHT22;8934;51.194;17.150;2023-08-01T03:54:11;17.10;99.90
17632;DHT22;8934;51.194;17.150;2023-08-01T03:56:59;17.10;99.90
17632;DHT22;8934;51.194;17.150;2023-08-01T03:59:47;17.10;99.90
17632;DHT22;8934;51.194;17.150;2023-08-01T04:02:34;17.10;99.90
17632;DHT22;8934;51.194;17.150;2023-08-01T04:05:22;17.20;99.90
17632;DHT22;8934;51.194;17.150;2023-08-01T04:08:10;17.20;99.90
17632;DHT22;8934;51.194;17.150;2023-08-01T04:10:59;17.20;99.90
17632;DHT22;8934;51.194;17.150;2023-08-01T04:13:47;17.20;99.90
17632;DHT22;8934;51.194;17.150;2023-08-01T04:16:35;17.20;99.90
17632;DHT22;8934;51.194;17.150;2023-08-01T04:19:23;17.30;99.90
17632;DHT22;8934;51.194;17.150;2023-08-01T04:22:11;17.30;99.90
17632;DHT22;8934;51.194;17.150;2023-08-01T04:24:59;17.30;99.90
17632;DHT22;8934;51.194;17.150;2023-08-01T04:27:48;17.20;99.90
17632;DHT22;8934;51.194;17.150;2023-08-01T04:30:35;17.20;99.90
17632;DHT22;8934;51.194;17.150;2023-08-01T04:33:24;17.20;99.90
17632;DHT22;8934;51.194;17.150;2023-08-01T04:36:12;17.20;99.90
17632;DHT22;8934;51.194;17.150;2023-08-01T04:39:00;17.20;99.90
17632;DHT22;8934;51.194;17.150;2023-08-01T04:41:47;17.20;99.90
17632;DHT22;8934;51.194;17.150;2023-08-01T04:44:37;17.10;99.90
17632;DHT22;8934;51.194;17.150;2023-08-01T04:47:25;17.20;99.90
17632;DHT22;8934;51.194;17.150;2023-08-01T04:50:13;17.20;99.90
17632;DHT22;8934;51.194;17.150;2023-08-01T04:53:01;17.30;99.90
17632;DHT22;8934;51.194;17.150;2023-08-01T04:55:50;17.30;99.90
17632;DHT22;8934;51.194;17.150;2023-08-01T04:58:37;17.30;99.90
17632;DHT22;8934;51.194;17.150;2023-08-01T05:01:26;17.30;99.90
17632;DHT22;8934;51.194;17.150;2023-08-01T05:04:14;17.30;99.90
17632;DHT22;8934;51.194;17.150;2023-08-01T05:07:02;17.20;99.90
17632;DHT22;8934;51.194;17.150;2023-08-01T05:09:51;17.20;99.90
17632;DHT22;8934;51.194;17.150;2023-08-01T05:12:38;17.20;99.90
17632;DHT22;8934;51.194;17.150;2023-08-01T05:15:26;17.20;99.90
17632;DHT22;8934;51.194;17.150;2023-08-01T05:18:18;17.20;99.90
17632;DHT22;8934;51.194;17.150;2023-08-01T05:21:06;17.20;99.90
17632;DHT22;8934;51.194;17.150;2023-08-01T05:23:53;17.20;99.90
17632;DHT22;8934;51.194;17.150;2023-08-01T05:26:41;17.30;99.90
17632;DHT22;8934;51.194;17.150;2023-08-01T05:29:29;17.30;99.90
17632;DHT22;8934;51.194;17.150;2023-08-01T05:32:17;17.30;99.90
17632;DHT22;8934;51.194;17.150;2023-08-01T05:35:07;17.30;99.90
17632;DHT22;8934;51.194;17.150;2023-08-01T05:37:55;17.30;99.90
17632;DHT22;8934;51.194;17.150;2023-08-01T05:40:42;17.30;99.90
17632;DHT22;8934;51.194;17.150;2023-08-01T05:43:30;17.30;99.90
17632;DHT22;8934;51.194;17.150;2023-08-01T05:46:18;17.30;99.90
17632;DHT22;8934;51.194;17.150;2023-08-01T05:49:06;17.30;99.90
17632;DHT22;8934;51.194;17.150;2023-08-01T05:51:55;17.40;99.90
17632;DHT22;8934;51.194;17.150;2023-08-01T05:54:42;17.40;99.90
17632;DHT22;8934;51.194;17.150;2023-08-01T05:57:30;17.40;99.90
17632;DHT22;8934;51.194;17.150;2023-08-01T06:00:18;17.40;99.90
17632;DHT22;8934;51.194;17.150;2023-08-01T06:03:07;17.50;99.90
17632;DHT22;8934;51.194;17.150;2023-08-01T06:05:55;17.40;99.90
17632;DHT22;8934;51.194;17.150;2023-08-01T06:08:44;17.40;99.90
17632;DHT22;8934;51.194;17.150;2023-08-01T06:11:32;17.40;99.90
17632;DHT22;8934;51.194;17.150;2023-08-01T06:14:20;17.40;99.90
17632;DHT22;8934;51.194;17.150;2023-08-01T06:17:08;17.50;99.90
17632;DHT22;8934;51.194;17.150;2023-08-01T06:19:56;17.50;99.90
17632;DHT22;8934;51.194;17.150;2023-08-01T06:22:43;17.50;99.90
17632;DHT22;8934;51.194;17.150;2023-08-01T06:25:33;17.60;99.90
17632;DHT22;8934;51.194;17.150;2023-08-01T06:28:20;17.60;99.90
17632;DHT22;8934;51.194;17.150;2023-08-01T06:31:08;17.70;99.90
17632;DHT22;8934;51.194;17.150;2023-08-01T06:33:56;17.70;99.90
17632;DHT22;8934;51.194;17.150;2023-08-01T06:36:43;17.80;99.90
17632;DHT22;8934;51.194;17.150;2023-08-01T06:39:31;17.80;99.90
17632;DHT22;8934;51.194;17.150;2023-08-01T06:42:21;17.90;99.90
17632;DHT22;8934;51.194;17.150;2023-08-01T06:45:08;18.00;99.90
17632;DHT22;8934;51.194;17.150;2023-08-01T06:47:56;18.10;99.90
17632;DHT22;8934;51.194;17.150;2023-08-01T06:50:44;18.10;99.90
17632;DHT22;8934;51.194;17.150;2023-08-01T06:53:32;18.10;99.90
17632;DHT22;8934;51.194;17.150;2023-08-01T06:56:20;18.10;99.90
17632;DHT22;8934;51.194;17.150;2023-08-01T06:59:09;18.00;99.90
17632;DHT22;8934;51.194;17.150;2023-08-01T07:01:57;18.00;99.90
17632;DHT22;8934;51.194;17.150;2023-08-01T07:04:45;17.90;99.90
17632;DHT22;8934;51.194;17.150;2023-08-01T07:07:32;17.90;99.90
17632;DHT22;8934;51.194;17.150;2023-08-01T07:10:20;17.90;99.90
17632;DHT22;8934;51.194;17.150;2023-08-01T07:13:07;17.90;99.90
17632;DHT22;8934;51.194;17.150;2023-08-01T07:15:57;17.90;99.90
17632;DHT22;8934;51.194;17.150;2023-08-01T07:18:45;17.90;99.90
17632;DHT22;8934;51.194;17.150;2023-08-01T07:21:34;17.90;99.90
17632;DHT22;8934;51.194;17.150;2023-08-01T07:24:22;17.90;99.90
17632;DHT22;8934;51.194;17.150;2023-08-01T07:27:10;17.90;99.90
17632;DHT22;8934;51.194;17.150;2023-08-01T07:29:59;18.00;99.90
17632;DHT22;8934;51.194;17.150;2023-08-01T07:32:48;18.00;99.90
17632;DHT22;8934;51.194;17.150;2023-08-01T07:35:36;18.00;99.90
17632;DHT22;8934;51.194;17.150;2023-08-01T07:38:23;18.00;99.90
17632;DHT22;8934;51.194;17.150;2023-08-01T07:41:13;18.10;99.90
17632;DHT22;8934;51.194;17.150;2023-08-01T07:44:01;18.10;99.90
17632;DHT22;8934;51.194;17.150;2023-08-01T07:46:50;18.20;99.90
17632;DHT22;8934;51.194;17.150;2023-08-01T07:49:39;18.30;99.90
17632;DHT22;8934;51.194;17.150;2023-08-01T07:52:26;18.50;99.90
17632;DHT22;8934;51.194;17.150;2023-08-01T07:55:14;18.60;99.90
17632;DHT22;8934;51.194;17.150;2023-08-01T07:58:04;18.80;99.90
17632;DHT22;8934;51.194;17.150;2023-08-01T08:00:52;18.90;99.90
17632;DHT22;8934;51.194;17.150;2023-08-01T08:03:39;19.00;99.90
17632;DHT22;8934;51.194;17.150;2023-08-01T08:06:28;19.20;99.90
17632;DHT22;8934;51.194;17.150;2023-08-01T08:09:17;19.40;99.90
17632;DHT22;8934;51.194;17.150;2023-08-01T08:12:06;19.60;99.90
17632;DHT22;8934;51.194;17.150;2023-08-01T08:14:54;19.70;99.90
17632;DHT22;8934;51.194;17.150;2023-08-01T08:17:42;19.80;99.90
17632;DHT22;8934;51.194;17.150;2023-08-01T08:20:31;19.90;99.90
17632;DHT22;8934;51.194;17.150;2023-08-01T08:23:20;20.00;99.90
17632;DHT22;8934;51.194;17.150;2023-08-01T08:26:08;20.00;99.90
17632;DHT22;8934;51.194;17.150;2023-08-01T08:28:56;20.00;99.90
17632;DHT22;8934;51.194;17.150;2023-08-01T08:31:44;20.20;99.90
17632;DHT22;8934;51.194;17.150;2023-08-01T08:34:32;20.30;99.90
17632;DHT22;8934;51.194;17.150;2023-08-01T08:37:20;20.30;99.90
17632;DHT22;8934;51.194;17.150;2023-08-01T08:40:12;20.30;99.90
17632;DHT22;8934;51.194;17.150;2023-08-01T08:43:02;20.30;99.90
17632;DHT22;8934;51.194;17.150;2023-08-01T08:45:51;20.30;99.90
17632;DHT22;8934;51.194;17.150;2023-08-01T08:48:41;20.20;99.90
17632;DHT22;8934;51.194;17.150;2023-08-01T08:51:31;20.20;99.90
17632;DHT22;8934;51.194;17.150;2023-08-01T08:54:19;20.20;99.90
17632;DHT22;8934;51.194;17.150;2023-08-01T08:57:09;20.20;99.90
17632;DHT22;8934;51.194;17.150;2023-08-01T08:59:58;20.20;99.90
17632;DHT22;8934;51.194;17.150;2023-08-01T09:15:35;20.10;99.90
17632;DHT22;8934;51.194;17.150;2023-08-01T09:18:24;20.50;99.90
17632;DHT22;8934;51.194;17.150;2023-08-01T09:21:12;20.60;99.90
17632;DHT22;8934;51.194;17.150;2023-08-01T09:24:08;20.60;99.90
17632;DHT22;8934;51.194;17.150;2023-08-01T09:27:03;20.60;99.90
17632;DHT22;8934;51.194;17.150;2023-08-01T09:29:52;20.60;99.90
17632;DHT22;8934;51.194;17.150;2023-08-01T09:32:50;20.70;99.90
17632;DHT22;8934;51.194;17.150;2023-08-01T09:35:38;20.70;99.90
17632;DHT22;8934;51.194;17.150;2023-08-01T09:38:26;20.50;99.90
17632;DHT22;8934;51.194;17.150;2023-08-01T09:41:17;20.40;99.90
17632;DHT22;8934;51.194;17.150;2023-08-01T09:44:04;20.30;99.90
17632;DHT22;8934;51.194;17.150;2023-08-01T09:46:56;20.30;99.90
17632;DHT22;8934;51.194;17.150;2023-08-01T09:49:49;20.30;99.90
17632;DHT22;8934;51.194;17.150;2023-08-01T09:52:38;20.30;99.90
17632;DHT22;8934;51.194;17.150;2023-08-01T09:55:30;20.40;99.90
17632;DHT22;8934;51.194;17.150;2023-08-01T09:58:20;20.40;99.90
17632;DHT22;8934;51.194;17.150;2023-08-01T10:01:10;20.40;99.90
17632;DHT22;8934;51.194;17.150;2023-08-01T10:03:58;20.50;99.90
17632;DHT22;8934;51.194;17.150;2023-08-01T10:06:57;20.40;99.90
17632;DHT22;8934;51.194;17.150;2023-08-01T10:09:46;20.40;99.90
17632;DHT22;8934;51.194;17.150;2023-08-01T10:12:36;20.40;99.90
17632;DHT22;8934;51.194;17.150;2023-08-01T10:15:24;20.30;99.90
17632;DHT22;8934;51.194;17.150;2023-08-01T10:18:13;20.30;99.90
17632;DHT22;8934;51.194;17.150;2023-08-01T10:21:01;20.40;99.90
17632;DHT22;8934;51.194;17.150;2023-08-01T10:23:51;20.40;99.90
17632;DHT22;8934;51.194;17.150;2023-08-01T10:26:39;20.40;99.90
17632;DHT22;8934;51.194;17.150;2023-08-01T10:29:34;20.40;99.90
17632;DHT22;8934;51.194;17.150;2023-08-01T10:32:29;20.50;99.90
17632;DHT22;8934;51.194;17.150;2023-08-01T10:35:18;20.60;99.90
17632;DHT22;8934;51.194;17.150;2023-08-01T10:38:07;20.70;99.90
17632;DHT22;8934;51.194;17.150;2023-08-01T10:40:57;20.70;99.90
17632;DHT22;8934;51.194;17.150;2023-08-01T10:43:45;20.60;99.90
17632;DHT22;8934;51.194;17.150;2023-08-01T10:46:47;20.50;99.90
17632;DHT22;8934;51.194;17.150;2023-08-01T10:49:36;20.40;99.90
17632;DHT22;8934;51.194;17.150;2023-08-01T10:52:25;20.40;99.90
17632;DHT22;8934;51.194;17.150;2023-08-01T10:55:14;20.40;99.90
17632;DHT22;8934;51.194;17.150;2023-08-01T10:58:04;20.40;99.90
17632;DHT22;8934;51.194;17.150;2023-08-01T11:00:58;20.50;99.90
17632;DHT22;8934;51.194;17.150;2023-08-01T11:03:46;20.50;99.90
17632;DHT22;8934;51.194;17.150;2023-08-01T11:06:43;20.50;99.90
17632;DHT22;8934;51.194;17.150;2023-08-01T11:09:30;20.30;99.90
17632;DHT22;8934;51.194;17.150;2023-08-01T11:12:18;20.20;99.90
17632;DHT22;8934;51.194;17.150;2023-08-01T11:15:10;20.10;99.90
17632;DHT22;8934;51.194;17.150;2023-08-01T11:17:58;20.00;99.90
17632;DHT22;8934;51.194;17.150;2023-08-01T11:20:46;19.90;99.90
17632;DHT22;8934;51.194;17.150;2023-08-01T11:23:34;19.90;99.90
17632;DHT22;8934;51.194;17.150;2023-08-01T11:26:22;19.90;99.90
17632;DHT22;8934;51.194;17.150;2023-08-01T11:29:10;19.90;99.90
17632;DHT22;8934;51.194;17.150;2023-08-01T11:32:00;19.90;99.90
17632;DHT22;8934;51.194;17.150;2023-08-01T11:34:49;19.80;99.90
17632;DHT22;8934;51.194;17.150;2023-08-01T11:37:37;19.80;99.90
17632;DHT22;8934;51.194;17.150;2023-08-01T11:40:25;19.80;99.90
17632;DHT22;8934;51.194;17.150;2023-08-01T11:43:13;19.80;99.90
17632;DHT22;8934;51.194;17.150;2023-08-01T11:46:01;19.90;99.90
17632;DHT22;8934;51.194;17.150;2023-08-01T11:48:50;19.90;99.90
17632;DHT22;8934;51.194;17.150;2023-08-01T11:51:39;20.00;99.90
17632;DHT22;8934;51.194;17.150;2023-08-01T11:54:27;20.00;99.90
17632;DHT22;8934;51.194;17.150;2023-08-01T11:57:15;20.10;99.90
17632;DHT22;8934;51.194;17.150;2023-08-01T12:00:04;20.20;99.90
17632;DHT22;8934;51.194;17.150;2023-08-01T12:03:04;20.40;99.90
17632;DHT22;8934;51.194;17.150;2023-08-01T12:06:02;20.70;99.90
17632;DHT22;8934;51.194;17.150;2023-08-01T12:08:52;21.00;99.90
17632;DHT22;8934;51.194;17.150;2023-08-01T12:11:40;21.20;99.90
17632;DHT22;8934;51.194;17.150;2023-08-01T12:14:28;21.40;99.90
17632;DHT22;8934;51.194;17.150;2023-08-01T12:17:16;21.60;99.90
17632;DHT22;8934;51.194;17.150;2023-08-01T12:20:05;21.80;99.90
17632;DHT22;8934;51.194;17.150;2023-08-01T12:22:54;22.10;99.90
17632;DHT22;8934;51.194;17.150;2023-08-01T12:25:42;22.50;99.90
17632;DHT22;8934;51.194;17.150;2023-08-01T12:28:30;22.90;99.90
17632;DHT22;8934;51.194;17.150;2023-08-01T12:31:18;23.40;99.90
17632;DHT22;8934;51.194;17.150;2023-08-01T12:34:06;23.80;99.90
17632;DHT22;8934;51.194;17.150;2023-08-01T12:36:53;24.00;99.90
17632;DHT22;8934;51.194;17.150;2023-08-01T12:39:43;24.20;99.90
17632;DHT22;8934;51.194;17.150;2023-08-01T12:42:30;24.40;99.90
17632;DHT22;8934;51.194;17.150;2023-08-01T12:45:18;24.50;99.90
17632;DHT22;8934;51.194;17.150;2023-08-01T12:48:06;24.60;99.90
17632;DHT22;8934;51.194;17.150;2023-08-01T12:50:54;24.80;99.90
17632;DHT22;8934;51.194;17.150;2023-08-01T12:53:41;25.00;99.90
17632;DHT22;8934;51.194;17.150;2023-08-01T12:56:33;25.10;99.90
17632;DHT22;8934;51.194;17.150;2023-08-01T12:59:21;25.10;99.90
17632;DHT22;8934;51.194;17.150;2023-08-01T13:02:08;24.90;99.90
17632;DHT22;8934;51.194;17.150;2023-08-01T13:04:56;24.70;99.90
17632;DHT22;8934;51.194;17.150;2023-08-01T13:07:45;24.60;99.90
17632;DHT22;8934;51.194;17.150;2023-08-01T13:10:33;24.50;99.90
17632;DHT22;8934;51.194;17.150;2023-08-01T13:13:22;24.50;99.90
17632;DHT22;8934;51.194;17.150;2023-08-01T13:16:10;24.30;99.90
17632;DHT22;8934;51.194;17.150;2023-08-01T13:18:58;24.20;99.90
17632;DHT22;8934;51.194;17.150;2023-08-01T13:21:46;24.30;99.90
17632;DHT22;8934;51.194;17.150;2023-08-01T13:24:33;24.40;99.90
17632;DHT22;8934;51.194;17.150;2023-08-01T13:27:21;24.70;99.90
17632;DHT22;8934;51.194;17.150;2023-08-01T13:30:11;24.80;99.90
17632;DHT22;8934;51.194;17.150;2023-08-01T13:33:00;24.80;99.90
17632;DHT22;8934;51.194;17.150;2023-08-01T13:35:51;24.60;99.90
17632;DHT22;8934;51.194;17.150;2023-08-01T13:38:40;24.40;99.90
17632;DHT22;8934;51.194;17.150;2023-08-01T13:41:27;24.30;99.90
17632;DHT22;8934;51.194;17.150;2023-08-01T13:44:15;24.30;99.90
17632;DHT22;8934;51.194;17.150;2023-08-01T13:47:05;24.40;99.90
17632;DHT22;8934;51.194;17.150;2023-08-01T13:49:52;24.90;99.90
17632;DHT22;8934;51.194;17.150;2023-08-01T13:52:41;25.40;99.90
17632;DHT22;8934;51.194;17.150;2023-08-01T13:55:28;25.80;99.90
17632;DHT22;8934;51.194;17.150;2023-08-01T13:58:16;26.30;99.90
17632;DHT22;8934;51.194;17.150;2023-08-01T14:01:04;26.70;99.90
17632;DHT22;8934;51.194;17.150;2023-08-01T14:03:54;27.40;99.90
17632;DHT22;8934;51.194;17.150;2023-08-01T14:06:42;28.10;99.90
17632;DHT22;8934;51.194;17.150;2023-08-01T14:09:30;28.70;99.90
17632;DHT22;8934;51.194;17.150;2023-08-01T14:12:18;28.50;99.90
17632;DHT22;8934;51.194;17.150;2023-08-01T14:15:07;28.20;99.90
17632;DHT22;8934;51.194;17.150;2023-08-01T14:17:55;27.70;99.90
17632;DHT22;8934;51.194;17.150;2023-08-01T14:20:44;27.00;99.90
17632;DHT22;8934;51.194;17.150;2023-08-01T14:23:31;26.30;99.90
17632;DHT22;8934;51.194;17.150;2023-08-01T14:26:19;25.70;99.90
17632;DHT22;8934;51.194;17.150;2023-08-01T14:29:06;25.10;99.90
17632;DHT22;8934;51.194;17.150;2023-08-01T14:31:54;24.70;99.90
17632;DHT22;8934;51.194;17.150;2023-08-01T14:34:42;24.30;99.90
17632;DHT22;8934;51.194;17.150;2023-08-01T14:37:31;23.90;99.90
17632;DHT22;8934;51.194;17.150;2023-08-01T14:40:20;23.70;99.90
17632;DHT22;8934;51.194;17.150;2023-08-01T14:43:08;23.50;99.90
17632;DHT22;8934;51.194;17.150;2023-08-01T14:45:55;23.30;99.90
17632;DHT22;8934;51.194;17.150;2023-08-01T14:48:43;23.30;99.90
17632;DHT22;8934;51.194;17.150;2023-08-01T14:51:31;23.30;99.90
17632;DHT22;8934;51.194;17.150;2023-08-01T14:54:21;23.40;99.90
17632;DHT22;8934;51.194;17.150;2023-08-01T14:57:25;23.50;99.90
17632;DHT22;8934;51.194;17.150;2023-08-01T15:00:15;23.60;99.90
17632;DHT22;8934;51.194;17.150;2023-08-01T15:03:03;23.70;99.90
17632;DHT22;8934;51.194;17.150;2023-08-01T15:05:51;23.70;99.90
17632;DHT22;8934;51.194;17.150;2023-08-01T15:08:39;23.70;99.90
17632;DHT22;8934;51.194;17.150;2023-08-01T15:11:28;23.60;99.90
17632;DHT22;8934;51.194;17.150;2023-08-01T15:14:15;23.60;99.90
17632;DHT22;8934;51.194;17.150;2023-08-01T15:17:03;23.60;99.90
17632;DHT22;8934;51.194;17.150;2023-08-01T15:19:51;23.60;99.90
17632;DHT22;8934;51.194;17.150;2023-08-01T15:22:40;23.50;99.90
17632;DHT22;8934;51.194;17.150;2023-08-01T15:25:27;23.50;99.90
17632;DHT22;8934;51.194;17.150;2023-08-01T15:28:17;23.50;99.90
17632;DHT22;8934;51.194;17.150;2023-08-01T15:31:05;23.50;99.90
17632;DHT22;8934;51.194;17.150;2023-08-01T15:33:53;23.70;99.90
17632;DHT22;8934;51.194;17.150;2023-08-01T15:36:41;23.80;99.90
17632;DHT22;8934;51.194;17.150;2023-08-01T15:39:33;23.90;99.90
17632;DHT22;8934;51.194;17.150;2023-08-01T15:42:20;23.90;99.90
17632;DHT22;8934;51.194;17.150;2023-08-01T15:45:12;23.90;99.90
17632;DHT22;8934;51.194;17.150;2023-08-01T15:48:00;23.90;99.90
17632;DHT22;8934;51.194;17.150;2023-08-01T15:50:47;23.80;99.90
17632;DHT22;8934;51.194;17.150;2023-08-01T15:53:35;23.70;99.90
17632;DHT22;8934;51.194;17.150;2023-08-01T15:56:23;23.60;99.90
17632;DHT22;8934;51.194;17.150;2023-08-01T15:59:11;23.40;99.90
17632;DHT22;8934;51.194;17.150;2023-08-01T16:02:00;23.30;99.90
17632;DHT22;8934;51.194;17.150;2023-08-01T16:04:47;23.10;99.90
17632;DHT22;8934;51.194;17.150;2023-08-01T16:07:37;23.10;99.90
17632;DHT22;8934;51.194;17.150;2023-08-01T16:10:25;22.90;99.90
17632;DHT22;8934;51.194;17.150;2023-08-01T16:13:13;22.90;99.90
17632;DHT22;8934;51.194;17.150;2023-08-01T16:16:01;22.70;99.90
17632;DHT22;8934;51.194;17.150;2023-08-01T16:18:50;22.60;99.90
17632;DHT22;8934;51.194;17.150;2023-08-01T16:21:38;22.50;99.90
17632;DHT22;8934;51.194;17.150;2023-08-01T16:24:26;22.40;99.90
17632;DHT22;8934;51.194;17.150;2023-08-01T16:27:13;22.40;99.90
17632;DHT22;8934;51.194;17.150;2023-08-01T16:30:01;22.40;99.90
17632;DHT22;8934;51.194;17.150;2023-08-01T16:32:49;22.30;99.90
17632;DHT22;8934;51.194;17.150;2023-08-01T16:35:39;22.30;99.90
17632;DHT22;8934;51.194;17.150;2023-08-01T16:38:27;22.30;99.90
17632;DHT22;8934;51.194;17.150;2023-08-01T16:41:14;22.20;99.90
17632;DHT22;8934;51.194;17.150;2023-08-01T16:44:07;22.20;99.90
17632;DHT22;8934;51.194;17.150;2023-08-01T16:46:55;22.10;99.90
17632;DHT22;8934;51.194;17.150;2023-08-01T16:49:45;22.00;99.90
17632;DHT22;8934;51.194;17.150;2023-08-01T16:52:35;22.00;99.90
17632;DHT22;8934;51.194;17.150;2023-08-01T16:55:23;21.90;99.90
17632;DHT22;8934;51.194;17.150;2023-08-01T16:58:11;21.70;99.90
17632;DHT22;8934;51.194;17.150;2023-08-01T17:01:00;21.40;99.90
17632;DHT22;8934;51.194;17.150;2023-08-01T17:03:47;21.00;99.90
17632;DHT22;8934;51.194;17.150;2023-08-01T17:06:35;20.50;99.90
17632;DHT22;8934;51.194;17.150;2023-08-01T17:09:26;20.00;99.90
17632;DHT22;8934;51.194;17.150;2023-08-01T17:12:14;19.50;99.90
17632;DHT22;8934;51.194;17.150;2023-08-01T17:15:02;19.10;99.90
17632;DHT22;8934;51.194;17.150;2023-08-01T17:17:50;18.80;99.90
17632;DHT22;8934;51.194;17.150;2023-08-01T17:20:39;18.60;99.90
17632;DHT22;8934;51.194;17.150;2023-08-01T17:23:27;18.50;99.90
17632;DHT22;8934;51.194;17.150;2023-08-01T17:26:16;18.40;99.90
17632;DHT22;8934;51.194;17.150;2023-08-01T17:29:04;18.30;99.90
17632;DHT22;8934;51.194;17.150;2023-08-01T17:31:52;18.30;99.90
17632;DHT22;8934;51.194;17.150;2023-08-01T17:34:40;18.20;99.90
17632;DHT22;8934;51.194;17.150;2023-08-01T17:37:28;18.20;99.90
17632;DHT22;8934;51.194;17.150;2023-08-01T17:40:16;18.20;99.90
17632;DHT22;8934;51.194;17.150;2023-08-01T17:43:05;18.10;99.90
17632;DHT22;8934;51.194;17.150;2023-08-01T17:45:53;18.10;99.90
17632;DHT22;8934;51.194;17.150;2023-08-01T17:48:41;18.10;99.90
17632;DHT22;8934;51.194;17.150;2023-08-01T17:51:30;18.10;99.90
17632;DHT22;8934;51.194;17.150;2023-08-01T17:54:18;18.00;99.90
17632;DHT22;8934;51.194;17.150;2023-08-01T17:57:05;18.00;99.90